sensor_id;sensor_type;location;lat;lon;timestamp;P1;durP1;ratioP1;P2;durP2;ratioP2
2201;SDS011;1107;48.654;9.250;2022-10-31T00:00:05;5.93;;;5.63;;
2201;SDS011;1107;48.654;9.250;2022-10-31T00:02:34;13.00;;;6.50;;
2201;SDS011;1107;48.654;9.250;2022-10-31T00:05:01;9.03;;;5.77;;
2201;SDS011;1107;48.654;9.250;2022-10-31T00:07:28;7.87;;;6.37;;
2201;SDS011;1107;48.654;9.250;2022-10-31T00:09:56;9.03;;;5.80;;
2201;SDS011;1107;48.654;9.250;2022-10-31T00:12:23;6.80;;;6.30;;
2201;SDS011;1107;48.654;9.250;2022-10-31T00:14:50;6.00;;;5.60;;
2201;SDS011;1107;48.654;9.250;2022-10-31T00:17:17;12.70;;;5.53;;
2201;SDS011;1107;48.654;9.250;2022-10-31T00:19:44;14.73;;;5.63;;
2201;SDS011;1107;48.654;9.250;2022-10-31T00:22:11;5.50;;;4.97;;
2201;SDS011;1107;48.654;9.250;2022-10-31T00:24:38;5.73;;;5.33;;
2201;SDS011;1107;48.654;9.250;2022-10-31T00:27:06;7.00;;;6.30;;
2201;SDS011;1107;48.654;9.250;2022-10-31T00:29:33;6.27;;;5.77;;
2201;SDS011;1107;48.654;9.250;2022-10-31T00:32:00;12.83;;;6.00;;
2201;SDS011;1107;48.654;9.250;2022-10-31T00:34:27;11.33;;;6.50;;
2201;SDS011;1107;48.654;9.250;2022-10-31T00:36:54;13.10;;;5.63;;
2201;SDS011;1107;48.654;9.250;2022-10-31T00:39:21;6.00;;;5.50;;
2201;SDS011;1107;48.654;9.250;2022-10-31T00:41:48;6.40;;;5.77;;
2201;SDS011;1107;48.654;9.250;2022-10-31T00:44:16;6.20;;;5.70;;
2201;SDS011;1107;48.654;9.250;2022-10-31T00:46:43;6.10;;;5.60;;
2201;SDS011;1107;48.654;9.250;2022-10-31T00:49:10;21.83;;;5.57;;
2201;SDS011;1107;48.654;9.250;2022-10-31T00:51:37;14.63;;;5.90;;
2201;SDS011;1107;48.654;9.250;2022-10-31T00:54:04;6.43;;;5.90;;
2201;SDS011;1107;48.654;9.250;2022-10-31T00:56:31;14.70;;;6.10;;
2201;SDS011;1107;48.654;9.250;2022-10-31T00:58:58;7.93;;;5.50;;
2201;SDS011;1107;48.654;9.250;2022-10-31T01:01:26;6.60;;;6.10;;
2201;SDS011;1107;48.654;9.250;2022-10-31T01:03:53;7.40;;;5.90;;
2201;SDS011;1107;48.654;9.250;2022-10-31T01:06:20;8.47;;;6.37;;
2201;SDS011;1107;48.654;9.250;2022-10-31T01:08:47;7.60;;;6.43;;
2201;SDS011;1107;48.654;9.250;2022-10-31T01:11:15;7.00;;;5.37;;
2201;SDS011;1107;48.654;9.250;2022-10-31T01:13:44;7.67;;;6.13;;
2201;SDS011;1107;48.654;9.250;2022-10-31T01:16:14;11.87;;;6.00;;
2201;SDS011;1107;48.654;9.250;2022-10-31T01:18:45;5.77;;;5.27;;
2201;SDS011;1107;48.654;9.250;2022-10-31T01:21:12;15.47;;;5.70;;
2201;SDS011;1107;48.654;9.250;2022-10-31T01:23:41;10.60;;;5.83;;
2201;SDS011;1107;48.654;9.250;2022-10-31T01:26:09;7.00;;;5.30;;
2201;SDS011;1107;48.654;9.250;2022-10-31T01:28:37;9.73;;;5.20;;
2201;SDS011;1107;48.654;9.250;2022-10-31T01:31:09;6.93;;;5.90;;
2201;SDS011;1107;48.654;9.250;2022-10-31T01:33:36;22.63;;;5.97;;
2201;SDS011;1107;48.654;9.250;2022-10-31T01:36:15;5.40;;;4.90;;
2201;SDS011;1107;48.654;9.250;2022-10-31T01:38:44;8.67;;;5.40;;
2201;SDS011;1107;48.654;9.250;2022-10-31T01:41:12;5.77;;;5.07;;
2201;SDS011;1107;48.654;9.250;2022-10-31T01:43:41;5.63;;;5.20;;
2201;SDS011;1107;48.654;9.250;2022-10-31T01:46:09;5.37;;;5.00;;
2201;SDS011;1107;48.654;9.250;2022-10-31T01:48:37;4.87;;;4.47;;
2201;SDS011;1107;48.654;9.250;2022-10-31T01:51:06;6.20;;;5.60;;
2201;SDS011;1107;48.654;9.250;2022-10-31T01:53:38;6.87;;;5.70;;
2201;SDS011;1107;48.654;9.250;2022-10-31T01:56:06;5.97;;;5.33;;
2201;SDS011;1107;48.654;9.250;2022-10-31T01:58:34;5.50;;;5.00;;
2201;SDS011;1107;48.654;9.250;2022-10-31T02:01:02;12.17;;;5.23;;
2201;SDS011;1107;48.654;9.250;2022-10-31T02:03:30;4.73;;;4.10;;
2201;SDS011;1107;48.654;9.250;2022-10-31T02:05:58;16.30;;;5.70;;
2201;SDS011;1107;48.654;9.250;2022-10-31T02:08:26;17.30;;;5.33;;
2201;SDS011;1107;48.654;9.250;2022-10-31T02:10:56;5.60;;;5.20;;
2201;SDS011;1107;48.654;9.250;2022-10-31T02:13:24;11.83;;;4.90;;
2201;SDS011;1107;48.654;9.250;2022-10-31T02:15:52;5.73;;;5.23;;
2201;SDS011;1107;48.654;9.250;2022-10-31T02:18:21;5.93;;;5.07;;
2201;SDS011;1107;48.654;9.250;2022-10-31T02:20:53;7.10;;;5.13;;
2201;SDS011;1107;48.654;9.250;2022-10-31T02:23:50;5.23;;;4.83;;
2201;SDS011;1107;48.654;9.250;2022-10-31T02:26:58;5.47;;;5.10;;
2201;SDS011;1107;48.654;9.250;2022-10-31T02:32:38;19.47;;;5.37;;
2201;SDS011;1107;48.654;9.250;2022-10-31T02:35:13;5.70;;;5.30;;
2201;SDS011;1107;48.654;9.250;2022-10-31T02:37:50;8.60;;;5.47;;
2201;SDS011;1107;48.654;9.250;2022-10-31T02:40:29;5.83;;;5.27;;
2201;SDS011;1107;48.654;9.250;2022-10-31T02:43:02;4.33;;;4.13;;
2201;SDS011;1107;48.654;9.250;2022-10-31T02:45:35;5.70;;;4.87;;
2201;SDS011;1107;48.654;9.250;2022-10-31T02:48:09;5.70;;;4.43;;
2201;SDS011;1107;48.654;9.250;2022-10-31T02:50:39;5.73;;;5.33;;
2201;SDS011;1107;48.654;9.250;2022-10-31T02:53:13;4.70;;;4.40;;
2201;SDS011;1107;48.654;9.250;2022-10-31T02:55:48;5.07;;;4.63;;
2201;SDS011;1107;48.654;9.250;2022-10-31T02:58:21;8.83;;;4.60;;
2201;SDS011;1107;48.654;9.250;2022-10-31T03:00:54;13.10;;;5.27;;
2201;SDS011;1107;48.654;9.250;2022-10-31T03:03:39;5.60;;;5.03;;
2201;SDS011;1107;48.654;9.250;2022-10-31T03:06:17;6.50;;;5.20;;
2201;SDS011;1107;48.654;9.250;2022-10-31T03:08:50;5.10;;;4.77;;
2201;SDS011;1107;48.654;9.250;2022-10-31T03:11:28;5.60;;;4.57;;
2201;SDS011;1107;48.654;9.250;2022-10-31T03:14:00;5.23;;;4.93;;
2201;SDS011;1107;48.654;9.250;2022-10-31T03:16:32;5.83;;;5.10;;
2201;SDS011;1107;48.654;9.250;2022-10-31T03:19:08;6.60;;;4.30;;
2201;SDS011;1107;48.654;9.250;2022-10-31T03:21:38;7.23;;;5.23;;
2201;SDS011;1107;48.654;9.250;2022-10-31T03:24:08;5.50;;;5.03;;
2201;SDS011;1107;48.654;9.250;2022-10-31T03:26:38;5.43;;;5.03;;
2201;SDS011;1107;48.654;9.250;2022-10-31T03:29:09;5.30;;;5.00;;
2201;SDS011;1107;48.654;9.250;2022-10-31T03:31:39;5.13;;;4.70;;
2201;SDS011;1107;48.654;9.250;2022-10-31T03:34:12;5.50;;;4.77;;
2201;SDS011;1107;48.654;9.250;2022-10-31T03:36:40;5.60;;;5.10;;
2201;SDS011;1107;48.654;9.250;2022-10-31T03:39:10;5.87;;;4.43;;
2201;SDS011;1107;48.654;9.250;2022-10-31T03:41:41;5.93;;;4.63;;
2201;SDS011;1107;48.654;9.250;2022-10-31T03:44:12;5.60;;;4.53;;
2201;SDS011;1107;48.654;9.250;2022-10-31T03:46:42;5.20;;;4.90;;
2201;SDS011;1107;48.654;9.250;2022-10-31T03:49:11;8.47;;;4.50;;
2201;SDS011;1107;48.654;9.250;2022-10-31T03:51:40;5.50;;;5.10;;
2201;SDS011;1107;48.654;9.250;2022-10-31T03:54:13;4.73;;;4.17;;
2201;SDS011;1107;48.654;9.250;2022-10-31T03:56:48;9.63;;;5.03;;
2201;SDS011;1107;48.654;9.250;2022-10-31T03:59:20;5.80;;;5.30;;
2201;SDS011;1107;48.654;9.250;2022-10-31T04:01:53;5.20;;;4.83;;
2201;SDS011;1107;48.654;9.250;2022-10-31T04:04:25;5.87;;;4.90;;
2201;SDS011;1107;48.654;9.250;2022-10-31T04:06:52;5.77;;;5.00;;
2201;SDS011;1107;48.654;9.250;2022-10-31T04:09:20;5.60;;;5.20;;
2201;SDS011;1107;48.654;9.250;2022-10-31T04:11:48;4.90;;;4.57;;
2201;SDS011;1107;48.654;9.250;2022-10-31T04:14:17;10.10;;;5.67;;
2201;SDS011;1107;48.654;9.250;2022-10-31T04:16:44;5.53;;;5.10;;
2201;SDS011;1107;48.654;9.250;2022-10-31T04:19:12;6.80;;;4.43;;
2201;SDS011;1107;48.654;9.250;2022-10-31T04:21:41;4.90;;;4.50;;
2201;SDS011;1107;48.654;9.250;2022-10-31T04:24:09;5.00;;;4.50;;
2201;SDS011;1107;48.654;9.250;2022-10-31T04:26:36;4.93;;;4.53;;
2201;SDS011;1107;48.654;9.250;2022-10-31T04:29:03;5.30;;;4.90;;
2201;SDS011;1107;48.654;9.250;2022-10-31T04:31:30;5.63;;;4.63;;
2201;SDS011;1107;48.654;9.250;2022-10-31T04:33:57;5.17;;;4.77;;
2201;SDS011;1107;48.654;9.250;2022-10-31T04:36:25;6.47;;;3.90;;
2201;SDS011;1107;48.654;9.250;2022-10-31T04:38:54;11.43;;;4.03;;
2201;SDS011;1107;48.654;9.250;2022-10-31T04:41:21;6.70;;;4.80;;
2201;SDS011;1107;48.654;9.250;2022-10-31T04:43:48;5.73;;;4.00;;
2201;SDS011;1107;48.654;9.250;2022-10-31T04:46:15;5.13;;;4.63;;
2201;SDS011;1107;48.654;9.250;2022-10-31T04:48:42;4.37;;;4.07;;
2201;SDS011;1107;48.654;9.250;2022-10-31T04:51:09;7.80;;;4.40;;
2201;SDS011;1107;48.654;9.250;2022-10-31T04:53:36;4.83;;;4.30;;
2201;SDS011;1107;48.654;9.250;2022-10-31T04:56:04;11.70;;;4.60;;
2201;SDS011;1107;48.654;9.250;2022-10-31T04:58:32;4.60;;;4.30;;
2201;SDS011;1107;48.654;9.250;2022-10-31T05:00:59;8.30;;;4.40;;
2201;SDS011;1107;48.654;9.250;2022-10-31T05:03:26;5.30;;;5.00;;
2201;SDS011;1107;48.654;9.250;2022-10-31T05:05:53;4.60;;;4.20;;
2201;SDS011;1107;48.654;9.250;2022-10-31T05:08:19;5.83;;;5.43;;
2201;SDS011;1107;48.654;9.250;2022-10-31T05:10:46;5.03;;;4.73;;
2201;SDS011;1107;48.654;9.250;2022-10-31T05:13:15;4.90;;;4.60;;
2201;SDS011;1107;48.654;9.250;2022-10-31T05:15:42;4.67;;;4.30;;
2201;SDS011;1107;48.654;9.250;2022-10-31T05:18:09;6.03;;;4.23;;
2201;SDS011;1107;48.654;9.250;2022-10-31T05:20:35;6.00;;;4.57;;
2201;SDS011;1107;48.654;9.250;2022-10-31T05:23:02;5.93;;;4.30;;
2201;SDS011;1107;48.654;9.250;2022-10-31T05:25:29;5.07;;;4.67;;
2201;SDS011;1107;48.654;9.250;2022-10-31T05:27:56;13.00;;;4.90;;
2201;SDS011;1107;48.654;9.250;2022-10-31T05:30:26;5.57;;;4.33;;
2201;SDS011;1107;48.654;9.250;2022-10-31T05:32:54;5.17;;;4.77;;
2201;SDS011;1107;48.654;9.250;2022-10-31T05:35:23;5.87;;;5.37;;
2201;SDS011;1107;48.654;9.250;2022-10-31T05:37:50;5.87;;;4.50;;
2201;SDS011;1107;48.654;9.250;2022-10-31T05:40:18;4.80;;;4.30;;
2201;SDS011;1107;48.654;9.250;2022-10-31T05:42:46;8.83;;;5.60;;
2201;SDS011;1107;48.654;9.250;2022-10-31T05:45:13;5.93;;;4.47;;
2201;SDS011;1107;48.654;9.250;2022-10-31T05:47:49;4.50;;;4.20;;
2201;SDS011;1107;48.654;9.250;2022-10-31T05:50:16;4.33;;;3.93;;
2201;SDS011;1107;48.654;9.250;2022-10-31T05:52:43;7.50;;;3.90;;
2201;SDS011;1107;48.654;9.250;2022-10-31T05:55:10;5.40;;;5.00;;
2201;SDS011;1107;48.654;9.250;2022-10-31T05:57:37;13.23;;;4.33;;
2201;SDS011;1107;48.654;9.250;2022-10-31T06:00:05;4.50;;;4.20;;
2201;SDS011;1107;48.654;9.250;2022-10-31T06:02:32;4.97;;;4.57;;
2201;SDS011;1107;48.654;9.250;2022-10-31T06:05:01;5.50;;;5.00;;
2201;SDS011;1107;48.654;9.250;2022-10-31T06:07:31;5.43;;;5.10;;
2201;SDS011;1107;48.654;9.250;2022-10-31T06:09:59;9.33;;;5.53;;
2201;SDS011;1107;48.654;9.250;2022-10-31T06:12:26;7.73;;;7.23;;
2201;SDS011;1107;48.654;9.250;2022-10-31T06:14:53;7.33;;;5.97;;
2201;SDS011;1107;48.654;9.250;2022-10-31T06:17:20;40.97;;;13.77;;
2201;SDS011;1107;48.654;9.250;2022-10-31T06:19:47;35.70;;;15.13;;
2201;SDS011;1107;48.654;9.250;2022-10-31T06:22:15;17.97;;;7.47;;
2201;SDS011;1107;48.654;9.250;2022-10-31T06:24:42;8.90;;;7.30;;
2201;SDS011;1107;48.654;9.250;2022-10-31T06:27:09;6.63;;;5.80;;
2201;SDS011;1107;48.654;9.250;2022-10-31T06:29:36;8.63;;;6.30;;
2201;SDS011;1107;48.654;9.250;2022-10-31T06:32:03;7.83;;;5.97;;
2201;SDS011;1107;48.654;9.250;2022-10-31T06:34:30;8.43;;;5.57;;
2201;SDS011;1107;48.654;9.250;2022-10-31T06:36:57;5.90;;;5.30;;
2201;SDS011;1107;48.654;9.250;2022-10-31T06:39:25;6.33;;;5.70;;
2201;SDS011;1107;48.654;9.250;2022-10-31T06:41:52;9.23;;;5.20;;
2201;SDS011;1107;48.654;9.250;2022-10-31T06:44:19;4.70;;;4.40;;
2201;SDS011;1107;48.654;9.250;2022-10-31T06:46:46;4.97;;;4.67;;
2201;SDS011;1107;48.654;9.250;2022-10-31T06:49:14;7.03;;;4.97;;
2201;SDS011;1107;48.654;9.250;2022-10-31T06:51:41;9.93;;;4.90;;
2201;SDS011;1107;48.654;9.250;2022-10-31T06:54:08;4.90;;;4.50;;
2201;SDS011;1107;48.654;9.250;2022-10-31T06:56:37;5.00;;;4.70;;
2201;SDS011;1107;48.654;9.250;2022-10-31T06:59:04;5.80;;;4.80;;
2201;SDS011;1107;48.654;9.250;2022-10-31T07:01:30;5.03;;;4.50;;
2201;SDS011;1107;48.654;9.250;2022-10-31T07:03:57;14.40;;;3.73;;
2201;SDS011;1107;48.654;9.250;2022-10-31T07:06:24;8.90;;;4.70;;
2201;SDS011;1107;48.654;9.250;2022-10-31T07:08:51;7.97;;;4.40;;
2201;SDS011;1107;48.654;9.250;2022-10-31T07:11:18;5.27;;;4.33;;
2201;SDS011;1107;48.654;9.250;2022-10-31T07:13:46;4.27;;;3.97;;
2201;SDS011;1107;48.654;9.250;2022-10-31T07:16:13;5.67;;;4.47;;
2201;SDS011;1107;48.654;9.250;2022-10-31T07:18:40;5.47;;;4.90;;
2201;SDS011;1107;48.654;9.250;2022-10-31T07:21:07;5.10;;;4.70;;
2201;SDS011;1107;48.654;9.250;2022-10-31T07:23:34;4.47;;;4.17;;
2201;SDS011;1107;48.654;9.250;2022-10-31T07:26:02;9.70;;;4.43;;
2201;SDS011;1107;48.654;9.250;2022-10-31T07:28:29;4.77;;;4.47;;
2201;SDS011;1107;48.654;9.250;2022-10-31T07:30:57;6.23;;;5.50;;
2201;SDS011;1107;48.654;9.250;2022-10-31T07:33:25;6.97;;;5.30;;
2201;SDS011;1107;48.654;9.250;2022-10-31T07:35:52;7.30;;;5.13;;
2201;SDS011;1107;48.654;9.250;2022-10-31T07:38:19;7.10;;;5.20;;
2201;SDS011;1107;48.654;9.250;2022-10-31T07:40:49;5.10;;;4.60;;
2201;SDS011;1107;48.654;9.250;2022-10-31T07:43:17;6.17;;;4.60;;
2201;SDS011;1107;48.654;9.250;2022-10-31T07:45:48;5.83;;;5.43;;
2201;SDS011;1107;48.654;9.250;2022-10-31T07:48:17;5.00;;;4.67;;
2201;SDS011;1107;48.654;9.250;2022-10-31T07:50:45;6.90;;;5.80;;
2201;SDS011;1107;48.654;9.250;2022-10-31T07:53:12;5.40;;;5.00;;
2201;SDS011;1107;48.654;9.250;2022-10-31T07:55:40;6.70;;;4.83;;
2201;SDS011;1107;48.654;9.250;2022-10-31T07:58:07;6.50;;;5.20;;
2201;SDS011;1107;48.654;9.250;2022-10-31T08:00:38;9.87;;;4.50;;
2201;SDS011;1107;48.654;9.250;2022-10-31T08:03:06;14.20;;;4.87;;
2201;SDS011;1107;48.654;9.250;2022-10-31T08:05:36;9.37;;;4.73;;
2201;SDS011;1107;48.654;9.250;2022-10-31T08:08:05;4.77;;;4.30;;
2201;SDS011;1107;48.654;9.250;2022-10-31T08:10:32;4.87;;;4.57;;
2201;SDS011;1107;48.654;9.250;2022-10-31T08:13:00;7.20;;;4.73;;
2201;SDS011;1107;48.654;9.250;2022-10-31T08:15:29;6.20;;;4.70;;
2201;SDS011;1107;48.654;9.250;2022-10-31T08:17:56;10.50;;;5.10;;
2201;SDS011;1107;48.654;9.250;2022-10-31T08:20:23;4.63;;;4.33;;
2201;SDS011;1107;48.654;9.250;2022-10-31T08:22:55;14.20;;;4.63;;
2201;SDS011;1107;48.654;9.250;2022-10-31T08:25:23;4.80;;;4.40;;
2201;SDS011;1107;48.654;9.250;2022-10-31T08:27:51;6.40;;;4.73;;
2201;SDS011;1107;48.654;9.250;2022-10-31T08:30:19;6.87;;;4.47;;
2201;SDS011;1107;48.654;9.250;2022-10-31T08:32:47;5.00;;;4.60;;
2201;SDS011;1107;48.654;9.250;2022-10-31T08:35:24;4.47;;;4.17;;
2201;SDS011;1107;48.654;9.250;2022-10-31T08:37:51;5.43;;;4.83;;
2201;SDS011;1107;48.654;9.250;2022-10-31T08:40:21;5.27;;;4.90;;
2201;SDS011;1107;48.654;9.250;2022-10-31T08:42:54;7.03;;;4.63;;
2201;SDS011;1107;48.654;9.250;2022-10-31T08:45:22;5.77;;;4.57;;
2201;SDS011;1107;48.654;9.250;2022-10-31T08:47:49;5.43;;;5.03;;
2201;SDS011;1107;48.654;9.250;2022-10-31T08:50:17;4.90;;;4.50;;
2201;SDS011;1107;48.654;9.250;2022-10-31T08:52:44;5.67;;;5.13;;
2201;SDS011;1107;48.654;9.250;2022-10-31T08:55:11;8.33;;;5.23;;
2201;SDS011;1107;48.654;9.250;2022-10-31T08:57:39;6.33;;;5.83;;
2201;SDS011;1107;48.654;9.250;2022-10-31T09:00:06;10.13;;;5.30;;
2201;SDS011;1107;48.654;9.250;2022-10-31T09:02:34;6.20;;;5.67;;
2201;SDS011;1107;48.654;9.250;2022-10-31T09:05:02;7.03;;;4.97;;
2201;SDS011;1107;48.654;9.250;2022-10-31T09:07:29;4.90;;;4.50;;
2201;SDS011;1107;48.654;9.250;2022-10-31T09:09:56;6.03;;;4.87;;
2201;SDS011;1107;48.654;9.250;2022-10-31T09:12:23;19.33;;;5.27;;
2201;SDS011;1107;48.654;9.250;2022-10-31T09:14:52;6.67;;;5.90;;
2201;SDS011;1107;48.654;9.250;2022-10-31T09:17:19;7.27;;;6.67;;
2201;SDS011;1107;48.654;9.250;2022-10-31T09:19:46;8.17;;;5.67;;
2201;SDS011;1107;48.654;9.250;2022-10-31T09:22:12;9.83;;;6.40;;
2201;SDS011;1107;48.654;9.250;2022-10-31T09:24:40;6.87;;;5.53;;
2201;SDS011;1107;48.654;9.250;2022-10-31T09:27:07;6.70;;;5.10;;
2201;SDS011;1107;48.654;9.250;2022-10-31T09:29:34;5.00;;;4.70;;
2201;SDS011;1107;48.654;9.250;2022-10-31T09:32:03;9.00;;;6.03;;
2201;SDS011;1107;48.654;9.250;2022-10-31T09:34:30;12.60;;;6.17;;
2201;SDS011;1107;48.654;9.250;2022-10-31T09:36:57;5.93;;;5.27;;
2201;SDS011;1107;48.654;9.250;2022-10-31T09:39:24;6.17;;;5.67;;
2201;SDS011;1107;48.654;9.250;2022-10-31T09:44:47;5.83;;;5.37;;
2201;SDS011;1107;48.654;9.250;2022-10-31T09:47:24;5.23;;;4.93;;
2201;SDS011;1107;48.654;9.250;2022-10-31T09:50:02;6.70;;;5.33;;
2201;SDS011;1107;48.654;9.250;2022-10-31T09:52:40;6.90;;;4.93;;
2201;SDS011;1107;48.654;9.250;2022-10-31T09:55:13;5.10;;;4.80;;
2201;SDS011;1107;48.654;9.250;2022-10-31T09:57:43;5.67;;;5.27;;
2201;SDS011;1107;48.654;9.250;2022-10-31T10:00:14;6.03;;;5.63;;
2201;SDS011;1107;48.654;9.250;2022-10-31T10:02:46;5.53;;;5.03;;
2201;SDS011;1107;48.654;9.250;2022-10-31T10:05:18;4.60;;;4.30;;
2201;SDS011;1107;48.654;9.250;2022-10-31T10:07:53;5.10;;;4.80;;
2201;SDS011;1107;48.654;9.250;2022-10-31T10:10:33;6.60;;;5.13;;
2201;SDS011;1107;48.654;9.250;2022-10-31T10:13:23;6.90;;;5.10;;
2201;SDS011;1107;48.654;9.250;2022-10-31T10:16:09;6.53;;;5.53;;
2201;SDS011;1107;48.654;9.250;2022-10-31T10:19:02;5.83;;;4.63;;
2201;SDS011;1107;48.654;9.250;2022-10-31T10:21:39;6.33;;;5.20;;
2201;SDS011;1107;48.654;9.250;2022-10-31T10:24:17;10.37;;;5.63;;
2201;SDS011;1107;48.654;9.250;2022-10-31T10:26:55;5.40;;;4.90;;
2201;SDS011;1107;48.654;9.250;2022-10-31T10:29:30;5.17;;;4.77;;
2201;SDS011;1107;48.654;9.250;2022-10-31T10:32:01;5.20;;;4.73;;
2201;SDS011;1107;48.654;9.250;2022-10-31T10:34:35;4.93;;;4.60;;
2201;SDS011;1107;48.654;9.250;2022-10-31T10:37:08;5.47;;;5.07;;
2201;SDS011;1107;48.654;9.250;2022-10-31T10:39:45;11.43;;;6.07;;
2201;SDS011;1107;48.654;9.250;2022-10-31T10:42:16;5.60;;;5.20;;
2201;SDS011;1107;48.654;9.250;2022-10-31T10:45:13;6.10;;;5.50;;
2201;SDS011;1107;48.654;9.250;2022-10-31T10:48:02;9.50;;;5.20;;
2201;SDS011;1107;48.654;9.250;2022-10-31T10:50:37;7.07;;;5.20;;
2201;SDS011;1107;48.654;9.250;2022-10-31T10:53:11;5.77;;;4.90;;
2201;SDS011;1107;48.654;9.250;2022-10-31T10:55:58;5.97;;;5.47;;
2201;SDS011;1107;48.654;9.250;2022-10-31T10:58:28;8.23;;;5.57;;
2201;SDS011;1107;48.654;9.250;2022-10-31T11:00:55;5.80;;;5.10;;
2201;SDS011;1107;48.654;9.250;2022-10-31T11:03:22;6.37;;;5.60;;
2201;SDS011;1107;48.654;9.250;2022-10-31T11:05:51;5.60;;;5.10;;
2201;SDS011;1107;48.654;9.250;2022-10-31T11:08:25;5.00;;;4.70;;
2201;SDS011;1107;48.654;9.250;2022-10-31T11:10:56;5.90;;;5.40;;
2201;SDS011;1107;48.654;9.250;2022-10-31T11:13:25;9.03;;;5.40;;
2201;SDS011;1107;48.654;9.250;2022-10-31T11:15:54;8.63;;;5.50;;
2201;SDS011;1107;48.654;9.250;2022-10-31T11:18:25;5.80;;;5.20;;
2201;SDS011;1107;48.654;9.250;2022-10-31T11:20:56;6.17;;;5.57;;
2201;SDS011;1107;48.654;9.250;2022-10-31T11:23:24;5.33;;;4.83;;
2201;SDS011;1107;48.654;9.250;2022-10-31T11:25:54;5.60;;;5.17;;
2201;SDS011;1107;48.654;9.250;2022-10-31T11:28:22;5.87;;;4.93;;
2201;SDS011;1107;48.654;9.250;2022-10-31T11:30:50;6.20;;;5.80;;
2201;SDS011;1107;48.654;9.250;2022-10-31T11:33:20;10.63;;;5.80;;
2201;SDS011;1107;48.654;9.250;2022-10-31T11:35:52;5.73;;;5.33;;
2201;SDS011;1107;48.654;9.250;2022-10-31T11:38:22;6.27;;;5.70;;
2201;SDS011;1107;48.654;9.250;2022-10-31T11:40:56;6.20;;;5.70;;
2201;SDS011;1107;48.654;9.250;2022-10-31T11:43:26;6.40;;;5.70;;
2201;SDS011;1107;48.654;9.250;2022-10-31T11:45:53;8.33;;;5.43;;
2201;SDS011;1107;48.654;9.250;2022-10-31T11:48:21;7.07;;;5.73;;
2201;SDS011;1107;48.654;9.250;2022-10-31T11:50:51;7.60;;;5.67;;
2201;SDS011;1107;48.654;9.250;2022-10-31T11:53:24;5.60;;;4.70;;
2201;SDS011;1107;48.654;9.250;2022-10-31T11:56:04;6.37;;;5.73;;
2201;SDS011;1107;48.654;9.250;2022-10-31T11:58:36;7.03;;;5.00;;
2201;SDS011;1107;48.654;9.250;2022-10-31T12:01:03;7.60;;;5.10;;
2201;SDS011;1107;48.654;9.250;2022-10-31T12:03:38;5.13;;;4.73;;
2201;SDS011;1107;48.654;9.250;2022-10-31T12:06:13;6.83;;;5.20;;
2201;SDS011;1107;48.654;9.250;2022-10-31T12:08:47;5.90;;;5.60;;
2201;SDS011;1107;48.654;9.250;2022-10-31T12:11:31;5.93;;;5.53;;
2201;SDS011;1107;48.654;9.250;2022-10-31T12:14:08;7.83;;;5.23;;
2201;SDS011;1107;48.654;9.250;2022-10-31T12:16:47;7.97;;;5.20;;
2201;SDS011;1107;48.654;9.250;2022-10-31T12:19:21;4.60;;;4.30;;
2201;SDS011;1107;48.654;9.250;2022-10-31T12:22:04;10.20;;;4.67;;
2201;SDS011;1107;48.654;9.250;2022-10-31T12:24:38;4.90;;;4.60;;
2201;SDS011;1107;48.654;9.250;2022-10-31T12:27:17;5.87;;;5.20;;
2201;SDS011;1107;48.654;9.250;2022-10-31T12:35:44;8.20;;;5.87;;
2201;SDS011;1107;48.654;9.250;2022-10-31T12:38:21;7.03;;;6.30;;
2201;SDS011;1107;48.654;9.250;2022-10-31T12:44:00;6.13;;;5.70;;
2201;SDS011;1107;48.654;9.250;2022-10-31T12:46:41;7.10;;;6.40;;
2201;SDS011;1107;48.654;9.250;2022-10-31T12:49:32;7.37;;;6.60;;
2201;SDS011;1107;48.654;9.250;2022-10-31T12:52:15;10.43;;;6.50;;
2201;SDS011;1107;48.654;9.250;2022-10-31T12:54:55;7.63;;;6.30;;
2201;SDS011;1107;48.654;9.250;2022-10-31T12:57:33;6.30;;;5.63;;
2201;SDS011;1107;48.654;9.250;2022-10-31T13:00:09;6.47;;;5.83;;
2201;SDS011;1107;48.654;9.250;2022-10-31T13:02:41;6.20;;;5.80;;
2201;SDS011;1107;48.654;9.250;2022-10-31T13:05:13;8.87;;;6.67;;
2201;SDS011;1107;48.654;9.250;2022-10-31T13:07:45;6.10;;;5.70;;
2201;SDS011;1107;48.654;9.250;2022-10-31T13:10:16;6.60;;;6.00;;
2201;SDS011;1107;48.654;9.250;2022-10-31T13:12:47;7.80;;;7.03;;
2201;SDS011;1107;48.654;9.250;2022-10-31T13:15:18;7.03;;;6.53;;
2201;SDS011;1107;48.654;9.250;2022-10-31T13:17:48;7.93;;;7.10;;
2201;SDS011;1107;48.654;9.250;2022-10-31T13:20:19;19.17;;;5.80;;
2201;SDS011;1107;48.654;9.250;2022-10-31T13:22:52;5.60;;;5.30;;
2201;SDS011;1107;48.654;9.250;2022-10-31T13:25:22;12.00;;;5.87;;
2201;SDS011;1107;48.654;9.250;2022-10-31T13:27:54;8.83;;;5.67;;
2201;SDS011;1107;48.654;9.250;2022-10-31T13:30:23;5.40;;;4.33;;
2201;SDS011;1107;48.654;9.250;2022-10-31T13:32:54;6.03;;;4.90;;
2201;SDS011;1107;48.654;9.250;2022-10-31T13:35:26;16.17;;;5.03;;
2201;SDS011;1107;48.654;9.250;2022-10-31T13:38:05;6.23;;;5.57;;
2201;SDS011;1107;48.654;9.250;2022-10-31T13:40:42;7.10;;;6.17;;
2201;SDS011;1107;48.654;9.250;2022-10-31T13:43:20;7.53;;;6.60;;
2201;SDS011;1107;48.654;9.250;2022-10-31T13:45:54;12.37;;;6.53;;
2201;SDS011;1107;48.654;9.250;2022-10-31T13:48:38;9.63;;;5.63;;
2201;SDS011;1107;48.654;9.250;2022-10-31T13:51:07;6.73;;;6.03;;
2201;SDS011;1107;48.654;9.250;2022-10-31T13:53:36;6.10;;;5.50;;
2201;SDS011;1107;48.654;9.250;2022-10-31T13:56:11;5.17;;;4.87;;
2201;SDS011;1107;48.654;9.250;2022-10-31T13:58:57;11.07;;;5.10;;
2201;SDS011;1107;48.654;9.250;2022-10-31T14:01:30;5.57;;;5.17;;
2201;SDS011;1107;48.654;9.250;2022-10-31T14:03:59;10.20;;;5.50;;
2201;SDS011;1107;48.654;9.250;2022-10-31T14:06:40;20.83;;;7.10;;
2201;SDS011;1107;48.654;9.250;2022-10-31T14:09:22;7.73;;;6.10;;
2201;SDS011;1107;48.654;9.250;2022-10-31T14:12:00;7.60;;;5.70;;
2201;SDS011;1107;48.654;9.250;2022-10-31T14:14:32;5.67;;;5.37;;
2201;SDS011;1107;48.654;9.250;2022-10-31T14:17:14;5.17;;;4.70;;
2201;SDS011;1107;48.654;9.250;2022-10-31T14:19:55;10.53;;;4.50;;
2201;SDS011;1107;48.654;9.250;2022-10-31T14:22:28;4.33;;;4.03;;
2201;SDS011;1107;48.654;9.250;2022-10-31T14:24:56;5.40;;;3.93;;
2201;SDS011;1107;48.654;9.250;2022-10-31T14:27:43;4.00;;;3.70;;
2201;SDS011;1107;48.654;9.250;2022-10-31T14:30:15;4.00;;;3.70;;
2201;SDS011;1107;48.654;9.250;2022-10-31T14:32:44;7.30;;;4.90;;
2201;SDS011;1107;48.654;9.250;2022-10-31T14:35:18;7.37;;;4.03;;
2201;SDS011;1107;48.654;9.250;2022-10-31T14:40:51;4.10;;;3.80;;
2201;SDS011;1107;48.654;9.250;2022-10-31T14:43:37;14.80;;;3.77;;
2201;SDS011;1107;48.654;9.250;2022-10-31T14:46:17;4.70;;;3.97;;
2201;SDS011;1107;48.654;9.250;2022-10-31T14:49:00;7.33;;;3.80;;
2201;SDS011;1107;48.654;9.250;2022-10-31T14:51:47;5.10;;;3.77;;
2201;SDS011;1107;48.654;9.250;2022-10-31T14:54:18;12.47;;;4.33;;
2201;SDS011;1107;48.654;9.250;2022-10-31T14:56:55;6.60;;;4.13;;
2201;SDS011;1107;48.654;9.250;2022-10-31T14:59:27;8.13;;;4.43;;
2201;SDS011;1107;48.654;9.250;2022-10-31T15:01:59;4.80;;;3.90;;
2201;SDS011;1107;48.654;9.250;2022-10-31T15:04:34;9.60;;;4.60;;
2201;SDS011;1107;48.654;9.250;2022-10-31T15:07:04;7.97;;;4.53;;
2201;SDS011;1107;48.654;9.250;2022-10-31T15:09:34;4.50;;;4.20;;
2201;SDS011;1107;48.654;9.250;2022-10-31T15:12:16;6.37;;;4.47;;
2201;SDS011;1107;48.654;9.250;2022-10-31T15:14:51;4.20;;;3.90;;
2201;SDS011;1107;48.654;9.250;2022-10-31T15:17:20;7.10;;;4.90;;
2201;SDS011;1107;48.654;9.250;2022-10-31T15:19:48;5.00;;;3.93;;
2201;SDS011;1107;48.654;9.250;2022-10-31T15:22:16;11.50;;;5.57;;
2201;SDS011;1107;48.654;9.250;2022-10-31T15:24:45;7.50;;;6.33;;
2201;SDS011;1107;48.654;9.250;2022-10-31T15:27:20;10.90;;;6.63;;
2201;SDS011;1107;48.654;9.250;2022-10-31T15:29:48;12.53;;;5.97;;
2201;SDS011;1107;48.654;9.250;2022-10-31T15:32:18;10.67;;;5.93;;
2201;SDS011;1107;48.654;9.250;2022-10-31T15:34:49;14.40;;;5.90;;
2201;SDS011;1107;48.654;9.250;2022-10-31T15:37:17;12.80;;;4.40;;
2201;SDS011;1107;48.654;9.250;2022-10-31T15:39:46;8.10;;;4.90;;
2201;SDS011;1107;48.654;9.250;2022-10-31T15:42:16;5.97;;;4.67;;
2201;SDS011;1107;48.654;9.250;2022-10-31T15:44:46;12.60;;;5.03;;
2201;SDS011;1107;48.654;9.250;2022-10-31T15:47:16;5.47;;;4.03;;
2201;SDS011;1107;48.654;9.250;2022-10-31T15:49:48;5.37;;;5.07;;
2201;SDS011;1107;48.654;9.250;2022-10-31T15:52:18;6.40;;;5.80;;